createdAt,value
2018-08-10T00:00:09.393Z,101861.16
2018-08-10T00:02:38.491Z,101860.25
2018-08-10T00:05:07.896Z,101861.16
2018-08-10T00:07:36.583Z,101853.70
2018-08-10T00:10:07.020Z,101854.01
2018-08-10T00:12:35.699Z,101854.46
2018-08-10T00:15:05.403Z,101847.05
2018-08-10T00:17:34.213Z,101850.44
2018-08-10T00:20:02.965Z,101845.67
2018-08-10T00:22:31.623Z,101846.44
2018-08-10T00:25:00.286Z,101854.98
2018-08-10T00:27:28.984Z,101841.50
2018-08-10T00:29:57.668Z,101849.28
2018-08-10T00:32:26.310Z,101840.95
2018-08-10T00:34:56.011Z,101852.70
2018-08-10T00:37:24.699Z,101845.66
2018-08-10T00:39:53.384Z,101842.03
2018-08-10T00:42:22.072Z,101841.36
2018-08-10T00:44:50.721Z,101840.05
2018-08-10T00:47:19.395Z,101840.50
2018-08-10T00:49:48.060Z,101840.34
2018-08-10T00:52:16.732Z,101844.11
2018-08-10T00:54:45.387Z,101838.61
2018-08-10T00:57:14.033Z,101842.33
2018-08-10T00:59:42.683Z,101842.47
2018-08-10T01:02:11.392Z,101836.83
2018-08-10T01:04:40.064Z,101842.07
2018-08-10T01:07:08.763Z,101839.80
2018-08-10T01:09:37.451Z,101833.59
2018-08-10T01:12:06.153Z,101837.08
2018-08-10T01:14:34.865Z,101845.80
2018-08-10T01:17:03.491Z,101843.55
2018-08-10T01:19:32.174Z,101841.10
2018-08-10T01:22:00.868Z,101842.07
2018-08-10T01:24:29.547Z,101844.70
2018-08-10T01:26:58.276Z,101835.05
2018-08-10T01:29:26.940Z,101825.56
2018-08-10T01:31:55.611Z,101838.08
2018-08-10T01:34:24.287Z,101839.84
2018-08-10T01:36:52.935Z,101839.99
2018-08-10T01:39:21.693Z,101839.63
2018-08-10T01:41:52.051Z,101834.83
2018-08-10T01:44:20.768Z,101838.83
2018-08-10T01:46:49.481Z,101842.39
2018-08-10T01:49:18.163Z,101831.81
2018-08-10T01:51:46.836Z,101837.06
2018-08-10T01:54:15.540Z,101829.64
2018-08-10T01:56:44.221Z,101831.05
2018-08-10T01:59:12.914Z,101824.72
2018-08-10T02:01:41.604Z,101836.66
2018-08-10T02:04:10.443Z,101836.20
2018-08-10T02:06:39.169Z,101830.50
2018-08-10T02:09:09.082Z,101836.66
2018-08-10T02:11:37.753Z,101825.09
2018-08-10T02:14:06.880Z,101827.94
2018-08-10T02:16:35.599Z,101834.73
2018-08-10T02:19:04.297Z,101831.16
2018-08-10T02:21:32.957Z,101819.91
2018-08-10T02:24:01.641Z,101825.01
2018-08-10T02:26:31.637Z,101822.38
2018-08-10T02:29:00.348Z,101819.50
2018-08-10T02:31:29.067Z,101820.91
2018-08-10T02:33:57.751Z,101820.59
2018-08-10T02:36:26.431Z,101828.00
2018-08-10T02:38:55.056Z,101824.95
2018-08-10T02:41:23.732Z,101817.31
2018-08-10T02:43:52.376Z,101822.78
2018-08-10T02:46:21.069Z,101817.63
2018-08-10T02:48:49.735Z,101816.77
2018-08-10T02:51:18.395Z,101817.14
2018-08-10T02:53:47.068Z,101820.05
2018-08-10T02:56:15.746Z,101809.96
2018-08-10T02:58:44.404Z,101808.25
2018-08-10T03:01:13.136Z,101811.33
2018-08-10T03:03:41.844Z,101811.78
2018-08-10T03:06:10.525Z,101807.79
2018-08-10T03:08:39.216Z,101809.96
2018-08-10T03:11:07.951Z,101798.61
2018-08-10T03:13:36.642Z,101800.84
2018-08-10T03:16:05.473Z,101794.73
2018-08-10T03:18:34.192Z,101800.09
2018-08-10T03:21:02.851Z,101792.31
2018-08-10T03:23:31.644Z,101797.64
2018-08-10T03:26:00.284Z,101790.69
2018-08-10T03:28:29.008Z,101795.53
2018-08-10T03:30:57.701Z,101797.64
2018-08-10T03:33:26.327Z,101805.02
2018-08-10T03:35:54.980Z,101796.25
2018-08-10T03:38:23.622Z,101792.86
2018-08-10T03:40:52.353Z,101801.27
2018-08-10T03:43:21.043Z,101795.31
2018-08-10T03:45:49.697Z,101801.18
2018-08-10T03:48:18.389Z,101805.56
2018-08-10T03:50:47.080Z,101796.48
2018-08-10T03:53:15.849Z,101791.38
2018-08-10T03:55:44.507Z,101794.91
2018-08-10T03:58:13.175Z,101790.13
2018-08-10T04:00:41.864Z,101793.59
2018-08-10T04:03:10.532Z,101789.75
2018-08-10T04:05:39.206Z,101788.44
2018-08-10T04:08:07.895Z,101784.20
2018-08-10T04:10:36.584Z,101786.82
2018-08-10T04:13:05.316Z,101785.87
2018-08-10T04:15:34.012Z,101790.98
2018-08-10T04:18:02.748Z,101791.92
2018-08-10T04:20:31.412Z,101787.50
2018-08-10T04:23:00.097Z,101793.23
2018-08-10T04:25:28.759Z,101789.44
2018-08-10T04:27:57.438Z,101794.54
2018-08-10T04:30:26.773Z,101792.74
2018-08-10T04:32:56.271Z,101799.78
2018-08-10T04:35:24.944Z,101792.28
2018-08-10T04:37:53.665Z,101774.77
2018-08-10T04:40:22.339Z,101775.02
2018-08-10T04:42:51.023Z,101774.08
2018-08-10T04:45:19.720Z,101777.50
2018-08-10T04:47:49.411Z,101771.77
2018-08-10T04:50:18.996Z,101769.14
2018-08-10T04:52:47.717Z,101766.61
2018-08-10T04:55:16.376Z,101767.02
2018-08-10T04:57:45.072Z,101759.60
2018-08-10T05:00:14.804Z,101761.08
2018-08-10T05:02:43.504Z,101765.78
2018-08-10T05:05:12.189Z,101773.64
2018-08-10T05:07:41.635Z,101778.48
2018-08-10T05:10:10.680Z,101765.07
2018-08-10T05:12:39.940Z,101773.48
2018-08-10T05:15:09.797Z,101772.63
2018-08-10T05:17:39.102Z,101769.09
2018-08-10T05:20:08.707Z,101761.28
2018-08-10T05:22:37.512Z,101763.70
2018-08-10T05:25:06.367Z,101766.23
2018-08-10T05:27:35.077Z,101768.26
2018-08-10T05:30:03.789Z,101766.48
2018-08-10T05:32:32.462Z,101755.52
2018-08-10T05:35:01.137Z,101752.13
2018-08-10T05:37:29.883Z,101753.27
2018-08-10T05:39:58.733Z,101744.55
2018-08-10T05:42:27.444Z,101741.92
2018-08-10T05:44:56.107Z,101743.59
2018-08-10T05:47:24.778Z,101742.34
2018-08-10T05:49:53.465Z,101744.40
2018-08-10T05:52:22.153Z,101733.59
2018-08-10T05:54:50.827Z,101737.30
2018-08-10T05:57:19.505Z,101726.41
2018-08-10T05:59:48.185Z,101729.83
2018-08-10T06:02:16.830Z,101739.38
2018-08-10T06:04:45.503Z,101737.30
2018-08-10T06:07:14.429Z,101739.06
2018-08-10T06:09:43.079Z,101724.64
2018-08-10T06:12:11.807Z,101717.31
2018-08-10T06:14:40.502Z,101714.70
2018-08-10T06:17:09.233Z,101716.06
2018-08-10T06:19:37.943Z,101711.22
2018-08-10T06:22:06.703Z,101707.83
2018-08-10T06:24:35.369Z,101708.59
2018-08-10T06:27:04.135Z,101710.36
2018-08-10T06:29:32.831Z,101700.64
2018-08-10T06:32:01.532Z,101697.56
2018-08-10T06:34:30.240Z,101697.87
2018-08-10T06:36:58.913Z,101695.24
2018-08-10T06:39:27.693Z,101697.80
2018-08-10T06:41:56.369Z,101697.26
2018-08-10T06:44:25.080Z,101699.33
2018-08-10T06:46:53.741Z,101690.46
2018-08-10T06:49:22.424Z,101683.45
2018-08-10T06:51:51.099Z,101678.45
2018-08-10T06:54:19.747Z,101679.21
2018-08-10T06:56:48.381Z,101675.18
2018-08-10T06:59:17.097Z,101678.75
2018-08-10T07:01:45.789Z,101677.64
2018-08-10T07:04:14.463Z,101671.03
2018-08-10T07:06:43.161Z,101673.95
2018-08-10T07:09:13.120Z,101673.40
2018-08-10T07:11:41.847Z,101670.16
2018-08-10T07:14:10.543Z,101670.47
2018-08-10T07:16:39.182Z,101666.38
2018-08-10T07:19:07.856Z,101673.23
2018-08-10T07:21:36.552Z,101676.22
2018-08-10T07:24:10.667Z,101678.55
2018-08-10T07:26:39.322Z,101679.95
2018-08-10T07:29:07.989Z,101684.05
2018-08-10T07:31:36.680Z,101690.52
2018-08-10T07:34:05.567Z,101690.97
2018-08-10T07:36:34.253Z,101716.39
2018-08-10T07:39:02.943Z,101706.20
2018-08-10T07:41:31.607Z,101719.88
2018-08-10T07:44:00.243Z,101717.00
2018-08-10T07:46:28.916Z,101704.19
2018-08-10T07:48:57.545Z,101682.90
2018-08-10T07:51:26.222Z,101683.75
2018-08-10T07:53:54.901Z,101675.67
2018-08-10T07:56:23.551Z,101685.06
2018-08-10T07:58:52.232Z,101683.05
2018-08-10T08:01:20.927Z,101688.79
2018-08-10T08:03:49.595Z,101694.48
2018-08-10T08:06:18.352Z,101705.84
2018-08-10T08:08:47.047Z,101713.22
2018-08-10T08:11:15.700Z,101710.08
2018-08-10T08:13:44.396Z,101697.63
2018-08-10T08:16:13.076Z,101695.71
2018-08-10T08:18:41.752Z,101696.87
2018-08-10T08:21:11.916Z,101695.61
2018-08-10T08:23:40.624Z,101698.48
2018-08-10T08:26:09.844Z,101694.53
2018-08-10T08:28:38.979Z,101691.41
2018-08-10T08:31:08.084Z,101686.44
2018-08-10T08:34:12.775Z,101690.20
2018-08-10T08:36:41.780Z,101688.31
2018-08-10T08:41:42.258Z,101698.69
2018-08-10T08:44:32.539Z,101701.84
2018-08-10T08:49:29.571Z,101694.23
2018-08-10T08:51:58.713Z,101694.03
2018-08-10T08:55:06.228Z,101698.10
2018-08-10T08:57:35.961Z,101693.27
2018-08-10T09:00:10.625Z,101698.19
2018-08-10T09:02:39.681Z,101696.61
2018-08-10T09:05:09.955Z,101688.69
2018-08-10T09:07:39.128Z,101681.99
2018-08-10T09:10:12.239Z,101694.13
2018-08-10T09:12:41.337Z,101690.12
2018-08-10T09:15:12.225Z,101691.89
2018-08-10T09:17:41.238Z,101700.14
2018-08-10T09:20:10.567Z,101705.52
2018-08-10T09:22:39.545Z,101697.22
2018-08-10T09:25:10.816Z,101720.52
2018-08-10T09:27:39.755Z,101707.58
2018-08-10T09:30:10.808Z,101713.41
2018-08-10T09:32:39.719Z,101723.66
2018-08-10T09:35:09.492Z,101732.06
2018-08-10T09:37:38.230Z,101719.80
2018-08-10T09:40:10.665Z,101721.97
2018-08-10T09:42:39.376Z,101728.77
2018-08-10T09:45:09.074Z,101737.12
2018-08-10T09:47:37.747Z,101728.84
2018-08-10T09:50:07.219Z,101734.88
2018-08-10T09:52:35.884Z,101728.48
2018-08-10T09:55:23.981Z,101739.52
2018-08-10T09:57:54.079Z,101733.11
2018-08-10T10:00:27.831Z,101737.91
2018-08-10T10:03:29.859Z,101751.89
2018-08-10T10:05:59.966Z,101771.12
2018-08-10T10:08:28.655Z,101756.55
2018-08-10T10:10:57.402Z,101752.64
2018-08-10T10:13:26.068Z,101765.95
2018-08-10T10:15:54.748Z,101771.73
2018-08-10T10:18:23.380Z,101766.41
2018-08-10T10:20:52.139Z,101769.33
2018-08-10T10:23:20.813Z,101766.53
2018-08-10T10:25:49.557Z,101772.27
2018-08-10T10:28:18.241Z,101781.19
2018-08-10T10:30:46.907Z,101783.38
2018-08-10T10:33:15.571Z,101774.80
2018-08-10T10:35:44.266Z,101781.77
2018-08-10T10:38:12.966Z,101778.97
2018-08-10T10:40:41.662Z,101778.09
2018-08-10T10:43:10.365Z,101785.14
2018-08-10T10:45:39.148Z,101781.59
2018-08-10T10:48:08.060Z,101786.63
2018-08-10T10:50:36.768Z,101780.64
2018-08-10T10:53:05.448Z,101786.95
2018-08-10T10:55:34.186Z,101788.72
2018-08-10T10:58:02.843Z,101787.02
2018-08-10T11:00:31.552Z,101789.88
2018-08-10T11:03:00.244Z,101806.77
2018-08-10T11:05:28.998Z,101802.65
2018-08-10T11:07:57.695Z,101802.99
2018-08-10T11:10:26.496Z,101806.72
2018-08-10T11:12:55.548Z,101804.94
2018-08-10T11:15:24.424Z,101813.52
2018-08-10T11:17:53.487Z,101802.36
2018-08-10T11:20:22.680Z,101808.56
2018-08-10T11:22:51.680Z,101805.17
2018-08-10T11:25:20.675Z,101804.13
2018-08-10T11:27:49.400Z,101837.61
2018-08-10T11:30:18.408Z,101828.92
2018-08-10T11:32:47.291Z,101820.97
2018-08-10T11:35:15.992Z,101828.59
2018-08-10T11:37:44.960Z,101831.14
2018-08-10T11:40:14.931Z,101832.12
2018-08-10T11:42:44.221Z,101836.93
2018-08-10T11:45:15.204Z,101833.67
2018-08-10T11:47:44.165Z,101836.84
2018-08-10T11:50:13.243Z,101841.84
2018-08-10T11:52:41.949Z,101845.06
2018-08-10T11:55:13.437Z,101844.95
2018-08-10T11:57:42.717Z,101844.32
2018-08-10T12:00:13.320Z,101845.39
2018-08-10T12:02:42.499Z,101844.31
2018-08-10T12:05:12.238Z,101850.72
2018-08-10T12:07:41.006Z,101860.35
2018-08-10T12:10:09.815Z,101855.29
2018-08-10T12:12:38.758Z,101855.66
2018-08-10T12:15:09.326Z,101862.14
2018-08-10T12:17:38.437Z,101885.23
2018-08-10T12:20:07.132Z,101890.31
2018-08-10T12:22:35.892Z,101888.52
2018-08-10T12:25:05.028Z,101897.01
2018-08-10T12:27:33.687Z,101896.89
2018-08-10T12:30:02.339Z,101899.52
2018-08-10T12:32:31.123Z,101903.80
2018-08-10T12:34:59.834Z,101903.92
2018-08-10T12:37:28.503Z,101907.54
2018-08-10T12:39:57.152Z,101901.98
2018-08-10T12:42:25.860Z,101909.73
2018-08-10T12:44:54.539Z,101904.81
2018-08-10T12:47:24.152Z,101914.27
2018-08-10T12:49:52.828Z,101905.81
2018-08-10T12:52:21.516Z,101917.72
2018-08-10T12:54:50.159Z,101903.61
2018-08-10T12:57:18.856Z,101923.52
2018-08-10T12:59:47.546Z,101928.02
2018-08-10T13:02:16.211Z,101929.36
2018-08-10T13:04:44.875Z,101932.66
2018-08-10T13:07:13.596Z,101924.95
2018-08-10T13:09:42.244Z,101933.09
2018-08-10T13:12:10.967Z,101931.75
2018-08-10T13:14:39.648Z,101930.52
2018-08-10T13:17:08.369Z,101930.14
2018-08-10T13:19:37.097Z,101933.34
2018-08-10T13:22:05.904Z,101931.87
2018-08-10T13:24:34.649Z,101931.06
2018-08-10T13:27:03.375Z,101925.06
2018-08-10T13:29:32.083Z,101925.97
2018-08-10T13:32:00.715Z,101929.13
2018-08-10T13:34:29.470Z,101928.99
2018-08-10T13:36:58.192Z,101944.33
2018-08-10T13:39:26.934Z,101932.83
2018-08-10T13:41:55.672Z,101939.73
2018-08-10T13:44:24.406Z,101941.44
2018-08-10T13:46:53.114Z,101939.06
2018-08-10T13:49:21.767Z,101939.30
2018-08-10T13:51:50.419Z,101951.89
2018-08-10T13:54:19.223Z,101945.05
2018-08-10T13:56:47.911Z,101946.89
2018-08-10T13:59:16.710Z,101944.49
2018-08-10T14:01:49.925Z,101944.98
2018-08-10T14:04:19.542Z,101949.21
2018-08-10T14:06:52.160Z,101948.98
2018-08-10T14:09:20.852Z,101952.16
2018-08-10T14:11:49.559Z,101957.72
2018-08-10T14:14:18.232Z,101957.23
2018-08-10T14:16:47.047Z,101956.48
2018-08-10T14:19:15.723Z,101967.73
2018-08-10T14:21:44.996Z,101961.22
2018-08-10T14:24:13.731Z,101965.30
2018-08-10T14:26:42.428Z,101976.17
2018-08-10T14:29:11.160Z,101982.94
2018-08-10T14:31:39.849Z,101980.39
2018-08-10T14:34:08.581Z,101989.45
2018-08-10T14:36:37.288Z,101984.38
2018-08-10T14:39:08.813Z,101979.69
2018-08-10T14:41:37.691Z,101977.14
2018-08-10T14:44:06.616Z,101975.34
2018-08-10T14:46:36.684Z,101981.50
2018-08-10T14:49:05.999Z,101984.28
2018-08-10T14:51:34.647Z,101983.91
2018-08-10T14:54:03.458Z,101986.20
2018-08-10T14:56:32.140Z,101994.06
2018-08-10T14:59:00.971Z,101990.19
2018-08-10T15:01:29.770Z,101977.75
2018-08-10T15:03:58.537Z,101980.78
2018-08-10T15:06:27.198Z,101979.56
2018-08-10T15:08:55.860Z,101984.63
2018-08-10T15:11:24.504Z,101986.33
2018-08-10T15:13:53.151Z,102003.70
2018-08-10T15:16:21.792Z,101984.77
2018-08-10T15:18:51.123Z,101989.59
2018-08-10T15:21:19.855Z,101991.77
2018-08-10T15:23:48.533Z,102002.86
2018-08-10T15:26:17.275Z,101996.45
2018-08-10T15:28:45.960Z,101988.01
2018-08-10T15:31:14.617Z,101998.27
2018-08-10T15:33:43.293Z,102000.27
2018-08-10T15:36:11.991Z,102008.63
2018-08-10T15:38:40.705Z,102015.88
2018-08-10T15:41:09.372Z,102008.77
2018-08-10T15:43:38.586Z,102015.11
2018-08-10T15:46:07.251Z,102021.75
2018-08-10T15:48:35.922Z,102020.98
2018-08-10T15:51:04.767Z,102037.70
2018-08-10T15:53:33.571Z,102023.05
2018-08-10T15:56:03.055Z,102021.73
2018-08-10T15:58:31.641Z,102028.86
2018-08-10T16:01:00.435Z,102034.67
2018-08-10T16:03:29.751Z,102040.80
2018-08-10T16:05:58.728Z,102039.38
2018-08-10T16:08:27.445Z,102043.22
2018-08-10T16:10:56.290Z,102053.95
2018-08-10T16:13:25.084Z,102040.95
2018-08-10T16:15:53.914Z,102047.36
2018-08-10T16:18:22.772Z,102038.95
2018-08-10T16:20:51.851Z,102044.63
2018-08-10T16:23:20.767Z,102041.03
2018-08-10T16:25:50.238Z,102049.11
2018-08-10T16:28:19.057Z,102047.78
2018-08-10T16:30:47.796Z,102048.77
2018-08-10T16:33:16.664Z,102042.23
2018-08-10T16:35:45.465Z,102052.50
2018-08-10T16:38:14.292Z,102047.53
2018-08-10T16:40:43.075Z,102058.78
2018-08-10T16:43:11.835Z,102062.41
2018-08-10T16:45:41.899Z,102056.78
2018-08-10T16:48:10.652Z,102075.70
2018-08-10T16:50:39.482Z,102065.94
2018-08-10T16:53:08.171Z,102062.20
2018-08-10T16:55:36.822Z,102066.34
2018-08-10T16:58:05.505Z,102059.78
2018-08-10T17:00:34.245Z,102061.95
2018-08-10T17:03:02.975Z,102057.73
2018-08-10T17:05:31.629Z,102065.77
2018-08-10T17:08:00.366Z,102063.23
2018-08-10T17:10:29.035Z,102070.72
2018-08-10T17:12:57.755Z,102072.30
2018-08-10T17:15:26.444Z,102063.76
2018-08-10T17:17:55.824Z,102070.75
2018-08-10T17:20:24.694Z,102081.45
2018-08-10T17:22:53.427Z,102072.17
2018-08-10T17:25:22.196Z,102078.72
2018-08-10T17:27:50.904Z,102075.70
2018-08-10T17:30:20.364Z,102082.28
2018-08-10T17:32:49.233Z,102086.89
2018-08-10T17:35:18.255Z,102086.92
2018-08-10T17:37:47.420Z,102093.17
2018-08-10T17:40:16.900Z,102091.69
2018-08-10T17:42:45.763Z,102098.64
2018-08-10T17:45:16.112Z,102102.41
2018-08-10T17:47:44.959Z,102108.36
2018-08-10T17:50:16.296Z,102107.73
2018-08-10T17:52:46.797Z,102108.73
2018-08-10T17:55:16.440Z,102105.08
2018-08-10T17:57:45.433Z,102110.84
2018-08-10T18:00:18.702Z,102111.95
2018-08-10T18:02:47.960Z,102120.49
2018-08-10T18:05:17.413Z,102125.80
2018-08-10T18:07:46.328Z,102120.66
2018-08-10T18:10:15.651Z,102125.89
2018-08-10T18:12:45.168Z,102139.50
2018-08-10T18:15:15.279Z,102142.73
2018-08-10T18:17:44.598Z,102130.67
2018-08-10T18:20:18.433Z,102140.89
2018-08-10T18:22:48.407Z,102153.28
2018-08-10T18:25:18.547Z,102152.52
2018-08-10T18:27:47.288Z,102141.11
2018-08-10T18:30:24.370Z,102152.26
2018-08-10T18:32:53.277Z,102150.27
2018-08-10T18:35:22.149Z,102152.63
2018-08-10T18:37:51.453Z,102151.89
2018-08-10T18:40:20.519Z,102154.72
2018-08-10T18:42:49.784Z,102152.26
2018-08-10T18:45:19.724Z,102156.98
2018-08-10T18:47:48.524Z,102161.49
2018-08-10T18:50:18.208Z,102163.75
2018-08-10T18:52:46.999Z,102165.15
2018-08-10T18:55:19.259Z,102159.30
2018-08-10T18:57:48.984Z,102163.13
2018-08-10T19:00:19.408Z,102159.98
2018-08-10T19:02:48.253Z,102158.20
2018-08-10T19:05:17.567Z,102169.67
2018-08-10T19:07:46.871Z,102163.82
2018-08-10T19:10:24.659Z,102165.39
2018-08-10T19:12:53.476Z,102168.41
2018-08-10T19:15:22.161Z,102172.72
2018-08-10T19:17:50.917Z,102177.95
2018-08-10T19:20:19.616Z,102178.31
2018-08-10T19:22:48.498Z,102177.34
2018-08-10T19:25:17.786Z,102175.51
2018-08-10T19:27:46.327Z,102177.55
2018-08-10T19:30:21.499Z,102184.12
2018-08-10T19:32:50.129Z,102182.58
2018-08-10T19:35:19.196Z,102187.16
2018-08-10T19:37:47.973Z,102190.13
2018-08-10T19:40:17.753Z,102195.17
2018-08-10T19:42:46.460Z,102196.75
2018-08-10T19:45:15.634Z,102197.84
2018-08-10T19:47:44.516Z,102208.19
2018-08-10T19:50:14.509Z,102208.41
2018-08-10T19:52:43.207Z,102208.51
2018-08-10T19:55:14.308Z,102209.52
2018-08-10T19:57:43.031Z,102212.33
2018-08-10T20:00:13.360Z,102218.91
2018-08-10T20:02:42.121Z,102218.05
2018-08-10T20:05:11.143Z,102225.59
2018-08-10T20:07:39.997Z,102226.28
2018-08-10T20:10:10.224Z,102228.39
2018-08-10T20:12:38.960Z,102229.25
2018-08-10T20:15:10.894Z,102235.44
2018-08-10T20:17:39.676Z,102226.13
2018-08-10T20:20:09.308Z,102242.73
2018-08-10T20:22:38.024Z,102246.09
2018-08-10T20:25:07.416Z,102249.80
2018-08-10T20:27:36.368Z,102250.91
2018-08-10T20:30:06.991Z,102252.38
2018-08-10T20:32:35.671Z,102258.66
2018-08-10T20:35:04.580Z,102250.30
2018-08-10T20:37:33.208Z,102258.97
2018-08-10T20:40:01.952Z,102253.00
2018-08-10T20:42:30.642Z,102258.72
2018-08-10T20:44:59.368Z,102265.00
2018-08-10T20:47:28.045Z,102258.56
2018-08-10T20:49:56.749Z,102263.47
2018-08-10T20:52:25.435Z,102263.53
2018-08-10T20:54:54.128Z,102268.27
2018-08-10T20:57:22.811Z,102267.72
2018-08-10T20:59:51.511Z,102277.54
2018-08-10T21:02:20.224Z,102276.46
2018-08-10T21:04:48.999Z,102282.80
2018-08-10T21:07:17.667Z,102282.48
2018-08-10T21:09:46.364Z,102287.41
2018-08-10T21:12:15.049Z,102288.41
2018-08-10T21:14:43.752Z,102293.81
2018-08-10T21:17:12.404Z,102293.51
2018-08-10T21:19:41.098Z,102303.35
2018-08-10T21:22:09.801Z,102307.44
2018-08-10T21:24:38.545Z,102310.67
2018-08-10T21:27:07.352Z,102309.50
2018-08-10T21:29:36.032Z,102310.59
2018-08-10T21:32:04.864Z,102312.19
2018-08-10T21:34:33.555Z,102309.25
2018-08-10T21:37:02.329Z,102312.47
2018-08-10T21:39:31.080Z,102320.50
2018-08-10T21:41:59.779Z,102319.88
2018-08-10T21:44:28.430Z,102321.78
2018-08-10T21:46:57.117Z,102321.28
2018-08-10T21:49:25.775Z,102324.41
2018-08-10T21:52:45.319Z,102327.27
2018-08-10T21:55:14.059Z,102331.16
2018-08-10T21:57:42.852Z,102334.34
2018-08-10T22:01:14.380Z,102338.72
